Green Ice — C6SO4 — position and weather

sailwx.info

Track history (hours):
 
Tides and Currents Weather Stations Pressure Air Temp Water Temp Dewpoint Dewpoint Depression Visibility Wind Speed Wind Dir Waves Ship Positions

Green Ice

Last reported at 2014-Oct-24 10:33 UTC. Time now 2014-Oct-24 11:19 UTC.
Position N 66°19' E 012°57'.

Length 86 m; draft 5.5 m.

Type: Cargo ship. MMSI: 311411000.

Date/timePositionNaut miles runAvg speedWind from/ knotsBaromVisibWave heightAir tempDewpointWater temp
2014-Oct-24 10:33N 66°19' E 012°57'1312.5
2014-Oct-24 09:33N 66°32' E 012°57'2611.6
2014-Oct-24 07:21N 66°54' E 013°28'911.3
2014-Oct-24 06:31N 67°01' E 013°44'1211.9
2014-Oct-24 05:31N 67°10' E 014°03'1212.3
2014-Oct-24 04:33N 67°20' E 014°21'1110.9
2014-Oct-24 03:32N 67°31' E 014°21'1711.7
2014-Oct-24 02:06N 67°48' E 014°20'143 8.9
2014-Oct-23 10:06N 69°33' E 018°45'610.8
2014-Oct-23 09:33N 69°38' E 018°56'2 1.5
2014-Oct-23 08:21N 69°39' E 018°58'0 0.0
2014-Oct-23 07:33N 69°39' E 018°58'2 1.8
2014-Oct-23 06:32N 69°38' E 018°57'0 0.0
2014-Oct-23 05:32N 69°38' E 018°57'0 0.0
2014-Oct-23 04:29N 69°38' E 018°57'0 0.0
2014-Oct-23 03:29N 69°38' E 018°57'0 0.1
2014-Oct-23 02:32N 69°38' E 018°57'0 0.0
2014-Oct-23 01:08N 69°38' E 018°57'0 0.0
2014-Oct-23 00:32N 69°38' E 018°57'0 0.0
2014-Oct-22 23:32N 69°38' E 018°57'0 0.0
2014-Oct-22 22:29N 69°38' E 018°57'0 0.0
2014-Oct-22 21:23N 69°38' E 018°57'0 0.0
2014-Oct-22 20:32N 69°38' E 018°57'0 0.0
2014-Oct-22 19:26N 69°38' E 018°57'0 0.0
2014-Oct-22 18:29N 69°38' E 018°57'0 0.0
2014-Oct-22 17:26N 69°38' E 018°57'0 0.0
2014-Oct-22 16:32N 69°38' E 018°57'3 3.3
2014-Oct-22 15:33N 69°41' E 019°01'2 1.5
2014-Oct-22 14:27N 69°42' E 019°01'1 0.8
2014-Oct-22 13:32N 69°43' E 019°03'9711.9
2014-Oct-22 05:21N 70°34' E 023°06'  
2014-Oct-19 21:29N 70°40' E 023°40'110 6.9
2014-Oct-19 05:34N 69°43' E 019°02'0 0.4
2014-Oct-19 04:30N 69°42' E 019°01'0 0.0
2014-Oct-19 03:33N 69°42' E 019°01'0 0.0
2014-Oct-19 02:33N 69°42' E 019°01'0 0.0
2014-Oct-19 01:33N 69°42' E 019°01'0 0.0
2014-Oct-19 00:32N 69°42' E 019°01'0 0.1
2014-Oct-18 23:29N 69°42' E 019°02'151 8.4
2014-Oct-18 05:33N 67°50' E 014°25'1612.8
2014-Oct-18 04:19N 67°34' E 014°20'1013.2
2014-Oct-18 03:33N 67°24' E 014°26'7 6.8
2014-Oct-18 02:33N 67°17' E 014°24'0 0.0
2014-Oct-18 01:33N 67°17' E 014°24'0 0.0
2014-Oct-18 00:33N 67°17' E 014°24'0 0.0
2014-Oct-17 23:33N 67°17' E 014°24'0 0.0
2014-Oct-17 22:33N 67°17' E 014°24'0 0.0
2014-Oct-17 21:30N 67°17' E 014°24'0 0.0
2014-Oct-17 20:33N 67°17' E 014°24'0 0.0
2014-Oct-17 19:30N 67°17' E 014°24'0 0.5
2014-Oct-17 18:34N 67°17' E 014°23'1111.1
2014-Oct-17 17:34N 67°09' E 014°03'1713.2
2014-Oct-17 16:18N 66°58' E 013°32'2712.6
2014-Oct-17 14:09N 66°33' E 013°03'711.2
2014-Oct-17 13:30N 66°26' E 012°59'81 7.3
2014-Oct-17 02:25N 65°10' E 011°51'1113.1
2014-Oct-17 01:34N 65°00' E 011°38'1211.9
2014-Oct-17 00:33N 64°53' E 011°17'2 1.7
2014-Oct-16 23:33N 64°51' E 011°14'  
2014-Oct-14 13:16N 59°30' E 005°13'811.1
2014-Oct-14 12:33N 59°23' E 005°18'  
Track history (hours):
 
Tides and Currents Weather Stations Pressure Air Temp Water Temp Dewpoint Dewpoint Depression Visibility Wind Speed Wind Dir Waves Ship Positions

Green Ice

Last reported at 2014-Oct-24 10:33 UTC. Time now 2014-Oct-24 11:19 UTC.
Position N 66°19' E 012°57'.

Length 86 m; draft 5.5 m.

Type: Cargo ship. MMSI: 311411000.

Date/timePositionNaut miles runAvg speedWind from/ knotsBaromVisibWave heightAir tempDewpointWater temp
2014-Oct-24 10:33N 66°19' E 012°57'1312.5
2014-Oct-24 09:33N 66°32' E 012°57'2611.6
2014-Oct-24 07:21N 66°54' E 013°28'911.3
2014-Oct-24 06:31N 67°01' E 013°44'1211.9
2014-Oct-24 05:31N 67°10' E 014°03'1212.3
2014-Oct-24 04:33N 67°20' E 014°21'1110.9
2014-Oct-24 03:32N 67°31' E 014°21'1711.7
2014-Oct-24 02:06N 67°48' E 014°20'143 8.9
2014-Oct-23 10:06N 69°33' E 018°45'610.8
2014-Oct-23 09:33N 69°38' E 018°56'2 1.5
2014-Oct-23 08:21N 69°39' E 018°58'0 0.0
2014-Oct-23 07:33N 69°39' E 018°58'2 1.8
2014-Oct-23 06:32N 69°38' E 018°57'0 0.0
2014-Oct-23 05:32N 69°38' E 018°57'0 0.0
2014-Oct-23 04:29N 69°38' E 018°57'0 0.0
2014-Oct-23 03:29N 69°38' E 018°57'0 0.1
2014-Oct-23 02:32N 69°38' E 018°57'0 0.0
2014-Oct-23 01:08N 69°38' E 018°57'0 0.0
2014-Oct-23 00:32N 69°38' E 018°57'0 0.0
2014-Oct-22 23:32N 69°38' E 018°57'0 0.0
2014-Oct-22 22:29N 69°38' E 018°57'0 0.0
2014-Oct-22 21:23N 69°38' E 018°57'0 0.0
2014-Oct-22 20:32N 69°38' E 018°57'0 0.0
2014-Oct-22 19:26N 69°38' E 018°57'0 0.0
2014-Oct-22 18:29N 69°38' E 018°57'0 0.0
2014-Oct-22 17:26N 69°38' E 018°57'0 0.0
2014-Oct-22 16:32N 69°38' E 018°57'3 3.3
2014-Oct-22 15:33N 69°41' E 019°01'2 1.5
2014-Oct-22 14:27N 69°42' E 019°01'1 0.8
2014-Oct-22 13:32N 69°43' E 019°03'9711.9
2014-Oct-22 05:21N 70°34' E 023°06'  
2014-Oct-19 21:29N 70°40' E 023°40'110 6.9
2014-Oct-19 05:34N 69°43' E 019°02'0 0.4
2014-Oct-19 04:30N 69°42' E 019°01'0 0.0
2014-Oct-19 03:33N 69°42' E 019°01'0 0.0
2014-Oct-19 02:33N 69°42' E 019°01'0 0.0
2014-Oct-19 01:33N 69°42' E 019°01'0 0.0
2014-Oct-19 00:32N 69°42' E 019°01'0 0.1
2014-Oct-18 23:29N 69°42' E 019°02'151 8.4
2014-Oct-18 05:33N 67°50' E 014°25'1612.8
2014-Oct-18 04:19N 67°34' E 014°20'1013.2
2014-Oct-18 03:33N 67°24' E 014°26'7 6.8
2014-Oct-18 02:33N 67°17' E 014°24'0 0.0
2014-Oct-18 01:33N 67°17' E 014°24'0 0.0
2014-Oct-18 00:33N 67°17' E 014°24'0 0.0
2014-Oct-17 23:33N 67°17' E 014°24'0 0.0
2014-Oct-17 22:33N 67°17' E 014°24'0 0.0
2014-Oct-17 21:30N 67°17' E 014°24'0 0.0
2014-Oct-17 20:33N 67°17' E 014°24'0 0.0
2014-Oct-17 19:30N 67°17' E 014°24'0 0.5
2014-Oct-17 18:34N 67°17' E 014°23'1111.1
2014-Oct-17 17:34N 67°09' E 014°03'1713.2
2014-Oct-17 16:18N 66°58' E 013°32'2712.6
2014-Oct-17 14:09N 66°33' E 013°03'711.2
2014-Oct-17 13:30N 66°26' E 012°59'81 7.3
2014-Oct-17 02:25N 65°10' E 011°51'1113.1
2014-Oct-17 01:34N 65°00' E 011°38'1211.9
2014-Oct-17 00:33N 64°53' E 011°17'2 1.7
2014-Oct-16 23:33N 64°51' E 011°14'  
2014-Oct-14 13:16N 59°30' E 005°13'811.1
2014-Oct-14 12:33N 59°23' E 005°18'  

Dump ship's entire track history